Time;durP1;ratioP1;P1;durP2;ratioP2;P2;SDS_P1;SDS_P2;PMS_P1;PMS_P2;Temp;Humidity;BMP_temperature;BMP_pressure;BME280_temperature;BME280_humidity;BME280_pressure;Samples;Min_cycle;Max_cycle;Signal;HPM_P1;HPM_P2
2023/05/17 00:01:20;;;;;;;9.88;3.78;;;16.80;99.90;;;;;;4162606;28;20042;-72
2023/05/17 00:03:21;;;;;;;8.43;3.60;;;16.80;99.90;;;;;;4162397;28;20041;-72
2023/05/17 00:05:22;;;;;;;7.57;4.10;;;16.80;99.90;;;;;;4163182;28;20041;-70
2023/05/17 00:07:23;;;;;;;10.82;3.92;;;16.80;99.90;;;;;;4162104;28;20033;-73
2023/05/17 00:09:24;;;;;;;12.80;3.78;;;16.80;99.90;;;;;;4146076;28;20029;-73
2023/05/17 00:11:25;;;;;;;12.48;4.28;;;16.80;99.90;;;;;;4161200;28;20042;-59
2023/05/17 00:13:27;;;;;;;15.48;4.68;;;16.70;99.90;;;;;;4163505;28;20021;-66
2023/05/17 00:15:28;;;;;;;10.85;3.67;;;16.70;99.90;;;;;;4160506;28;20041;-71
2023/05/17 00:17:29;;;;;;;15.02;4.63;;;16.70;99.90;;;;;;4162578;28;20041;-67
2023/05/17 00:19:31;;;;;;;13.20;4.60;;;16.70;99.90;;;;;;4161217;28;20041;-72
2023/05/17 00:21:32;;;;;;;17.17;3.70;;;16.70;99.90;;;;;;4162246;28;20490;-71
2023/05/17 00:23:33;;;;;;;9.52;4.00;;;16.70;99.90;;;;;;4162526;28;20026;-68
2023/05/17 00:25:34;;;;;;;12.13;4.03;;;16.70;99.90;;;;;;4161150;28;20092;-65
2023/05/17 00:27:35;;;;;;;17.02;5.20;;;16.70;99.90;;;;;;4161925;28;20489;-60
2023/05/17 00:29:36;;;;;;;16.52;4.18;;;16.70;99.90;;;;;;4162089;28;20084;-61
2023/05/17 00:31:37;;;;;;;13.23;4.45;;;16.70;99.90;;;;;;4163060;28;20033;-66
2023/05/17 00:33:40;;;;;;;10.60;3.78;;;16.70;99.90;;;;;;4160843;28;20174;-59
2023/05/17 00:35:41;;;;;;;18.17;4.00;;;16.70;99.90;;;;;;4162834;28;20773;-60
2023/05/17 00:37:46;;;;;;;16.85;4.07;;;16.60;99.90;;;;;;4161716;28;20033;-68
2023/05/17 00:39:47;;;;;;;16.42;4.30;;;16.60;99.90;;;;;;4161803;28;20045;-71
2023/05/17 00:41:49;;;;;;;15.93;3.85;;;16.60;99.90;;;;;;4161889;28;20037;-68
2023/05/17 00:43:50;;;;;;;9.07;4.00;;;16.60;99.90;;;;;;4162568;28;20066;-73
2023/05/17 00:45:51;;;;;;;13.98;3.78;;;16.50;99.90;;;;;;4160381;28;20037;-65
2023/05/17 00:47:52;;;;;;;13.48;4.00;;;16.50;99.90;;;;;;4162752;28;20034;-70
2023/05/17 00:49:54;;;;;;;16.95;4.38;;;16.60;99.90;;;;;;4161578;28;20412;-66
2023/05/17 00:51:55;;;;;;;11.40;4.00;;;16.60;99.90;;;;;;4161801;28;20083;-69
2023/05/17 00:53:56;;;;;;;11.57;4.43;;;16.60;99.90;;;;;;4161987;28;20075;-59
2023/05/17 00:55:58;;;;;;;13.18;4.05;;;16.60;99.90;;;;;;4162240;28;20026;-69
2023/05/17 00:57:59;;;;;;;15.90;4.35;;;16.60;99.90;;;;;;4162069;28;20026;-60
2023/05/17 01:00:01;;;;;;;13.10;4.50;;;16.60;99.90;;;;;;4161845;28;20149;-71
2023/05/17 01:02:03;;;;;;;12.18;3.97;;;16.60;99.90;;;;;;4162426;28;20072;-60
2023/05/17 01:04:04;;;;;;;14.82;3.33;;;16.60;99.90;;;;;;4160872;28;20435;-65
2023/05/17 01:06:06;;;;;;;12.90;4.70;;;16.60;99.90;;;;;;4161640;28;20057;-72
2023/05/17 01:08:07;;;;;;;15.38;4.13;;;16.50;99.90;;;;;;4160799;28;20041;-73
2023/05/17 01:10:09;;;;;;;11.25;4.25;;;16.50;99.90;;;;;;4162836;28;20017;-60
2023/05/17 01:12:55;;;;;;;13.57;4.82;;;16.40;99.90;;;;;;4161357;28;20075;-60
2023/05/17 01:15:10;;;;;;;11.48;3.60;;;16.40;99.90;;;;;;4162198;28;20355;-60
2023/05/17 01:17:17;;;;;;;14.55;4.90;;;16.30;99.90;;;;;;4161294;28;20367;-71
2023/05/17 01:19:51;;;;;;;9.15;3.55;;;16.30;99.90;;;;;;4162082;28;20041;-59
2023/05/17 01:22:04;;;;;;;16.80;3.72;;;16.30;99.90;;;;;;4161748;28;20462;-74
2023/05/17 01:24:25;;;;;;;14.50;4.03;;;16.20;99.90;;;;;;4161460;28;20076;-60
2023/05/17 01:26:39;;;;;;;13.27;3.67;;;16.20;99.90;;;;;;4161668;28;20465;-64
2023/05/17 01:28:45;;;;;;;10.55;3.17;;;16.20;99.90;;;;;;4160874;28;20037;-59
2023/05/17 01:30:48;;;;;;;10.02;3.30;;;16.20;99.90;;;;;;4161904;28;20033;-73
2023/05/17 01:32:50;;;;;;;10.75;3.22;;;16.20;99.90;;;;;;4160794;28;20056;-74
2023/05/17 01:34:51;;;;;;;14.93;3.75;;;16.20;99.90;;;;;;4159937;28;20424;-62
2023/05/17 01:36:53;;;;;;;7.88;3.40;;;16.30;99.90;;;;;;4161423;28;20612;-69
2023/05/17 01:38:54;;;;;;;12.98;3.40;;;16.30;99.90;;;;;;4161210;28;20041;-73
2023/05/17 01:41:05;;;;;;;11.70;3.85;;;16.30;99.90;;;;;;4161169;28;20846;-73
2023/05/17 01:43:22;;;;;;;10.82;3.22;;;16.30;99.90;;;;;;4160770;28;20080;-60
2023/05/17 01:45:25;;;;;;;11.00;3.47;;;16.40;99.90;;;;;;4161514;28;20064;-73
2023/05/17 01:47:38;;;;;;;14.07;3.95;;;16.40;99.90;;;;;;4160953;28;20029;-66
2023/05/17 01:49:45;;;;;;;9.77;3.67;;;16.40;99.90;;;;;;4161177;28;20378;-71
2023/05/17 01:52:18;;;;;;;10.02;2.55;;;16.50;99.90;;;;;;4160396;28;20041;-63
2023/05/17 01:54:25;;;;;;;8.77;3.05;;;16.50;99.90;;;;;;4155760;28;20115;-59
2023/05/17 01:56:32;;;;;;;12.35;2.95;;;16.50;99.90;;;;;;4160694;28;20038;-74
2023/05/17 01:58:43;;;;;;;11.52;2.40;;;16.50;99.90;;;;;;4160291;28;20042;-73
2023/05/17 02:00:47;;;;;;;11.45;3.38;;;16.50;99.90;;;;;;4163248;28;20041;-60
2023/05/17 02:02:48;;;;;;;12.73;4.47;;;16.50;99.90;;;;;;4177815;28;20025;-70
2023/05/17 02:04:50;;;;;;;9.50;3.45;;;16.50;99.90;;;;;;4177298;28;20075;-73
2023/05/17 02:06:51;;;;;;;6.47;3.45;;;16.50;99.90;;;;;;4173082;28;20037;-72
2023/05/17 02:08:52;;;;;;;10.15;2.95;;;16.50;99.90;;;;;;4160477;28;20037;-61
2023/05/17 02:10:53;;;;;;;14.85;3.40;;;16.50;99.90;;;;;;4161183;28;20513;-60
2023/05/17 02:12:55;;;;;;;11.68;2.67;;;16.50;99.90;;;;;;4160357;28;20029;-68
2023/05/17 02:14:56;;;;;;;15.07;3.28;;;16.50;99.90;;;;;;4160990;28;20064;-63
2023/05/17 02:16:57;;;;;;;15.48;3.47;;;16.40;99.90;;;;;;4160615;28;20059;-74
2023/05/17 02:18:58;;;;;;;14.18;3.80;;;16.30;99.90;;;;;;4160644;28;20049;-71
2023/05/17 02:21:00;;;;;;;10.57;2.95;;;16.30;99.90;;;;;;4160419;28;20563;-73
2023/05/17 02:23:01;;;;;;;8.65;3.03;;;16.20;99.90;;;;;;4161789;28;20053;-74
2023/05/17 02:25:02;;;;;;;12.05;2.83;;;16.20;99.90;;;;;;4160347;28;20030;-68
2023/05/17 02:27:03;;;;;;;7.05;4.00;;;16.20;99.90;;;;;;4161410;28;20033;-60
2023/05/17 02:29:04;;;;;;;11.52;3.67;;;16.10;99.90;;;;;;4160672;28;20071;-70
2023/05/17 02:31:08;;;;;;;13.88;3.45;;;16.10;99.90;;;;;;4161014;28;20146;-73
2023/05/17 02:33:09;;;;;;;9.07;3.75;;;16.00;99.90;;;;;;4160263;28;20543;-74
2023/05/17 02:35:10;;;;;;;15.00;3.33;;;16.00;99.90;;;;;;4160368;28;20045;-72
2023/05/17 02:37:11;;;;;;;8.15;2.90;;;16.00;99.90;;;;;;4161209;28;20037;-73
2023/05/17 02:39:12;;;;;;;9.65;3.42;;;15.90;99.90;;;;;;4163023;28;20045;-73
2023/05/17 02:41:14;;;;;;;9.13;2.88;;;15.90;99.90;;;;;;4164045;28;20176;-74
2023/05/17 02:43:15;;;;;;;10.13;3.38;;;15.90;99.90;;;;;;4163541;28;20038;-70
2023/05/17 02:45:16;;;;;;;10.38;3.15;;;15.90;99.90;;;;;;4164837;28;20455;-72
2023/05/17 02:47:19;;;;;;;4.90;2.42;;;15.90;99.90;;;;;;4163072;28;20049;-72
2023/05/17 02:49:21;;;;;;;13.70;3.03;;;15.90;99.90;;;;;;4164614;28;20531;-71
2023/05/17 02:51:22;;;;;;;9.38;2.75;;;15.90;99.90;;;;;;4163452;28;20021;-73
2023/05/17 02:53:23;;;;;;;9.43;3.00;;;15.90;99.90;;;;;;4164662;28;20037;-73
2023/05/17 02:55:24;;;;;;;9.00;3.25;;;15.90;99.90;;;;;;4163103;28;20033;-72
2023/05/17 02:57:25;;;;;;;11.85;3.28;;;15.90;99.90;;;;;;4164384;28;20029;-71
2023/05/17 02:59:26;;;;;;;9.00;2.45;;;15.80;99.90;;;;;;4162741;28;20038;-72
2023/05/17 03:01:28;;;;;;;13.27;3.50;;;15.80;99.90;;;;;;4163593;28;20037;-74
2023/05/17 03:03:30;;;;;;;9.15;3.17;;;15.80;99.90;;;;;;4163851;28;20025;-73
2023/05/17 03:05:32;;;;;;;13.45;2.83;;;15.70;99.90;;;;;;4162369;28;20080;-73
2023/05/17 03:07:33;;;;;;;9.43;3.58;;;15.70;99.90;;;;;;4163757;28;20033;-73
2023/05/17 03:09:35;;;;;;;10.35;2.70;;;15.70;99.90;;;;;;4163837;28;20084;-74
2023/05/17 03:11:36;;;;;;;13.68;3.05;;;15.60;99.90;;;;;;4164242;28;20084;-68
2023/05/17 03:13:37;;;;;;;9.50;3.47;;;15.60;99.90;;;;;;4163140;28;20041;-67
2023/05/17 03:15:38;;;;;;;10.57;2.60;;;15.60;99.90;;;;;;4164328;28;20033;-74
2023/05/17 03:17:39;;;;;;;7.63;3.30;;;15.60;99.90;;;;;;4162762;28;20041;-72
2023/05/17 03:19:40;;;;;;;11.05;3.58;;;15.60;99.90;;;;;;4163387;28;20127;-74
2023/05/17 03:21:41;;;;;;;8.40;3.25;;;15.60;99.90;;;;;;4162175;28;20049;-73
2023/05/17 03:23:42;;;;;;;8.50;3.75;;;15.60;99.90;;;;;;4164172;28;20644;-73
2023/05/17 03:25:43;;;;;;;7.50;2.70;;;15.60;99.90;;;;;;4162664;28;20096;-73
2023/05/17 03:27:45;;;;;;;13.65;4.90;;;15.70;99.90;;;;;;4163200;28;20041;-75
2023/05/17 03:29:46;;;;;;;7.28;2.85;;;15.70;99.90;;;;;;4161909;28;20079;-75
2023/05/17 03:31:47;;;;;;;8.55;2.92;;;15.80;99.90;;;;;;4162605;28;20045;-73
2023/05/17 03:33:48;;;;;;;9.13;2.40;;;15.80;99.90;;;;;;4163027;28;20041;-74
2023/05/17 03:35:49;;;;;;;13.43;3.88;;;15.80;99.90;;;;;;4163253;28;20033;-76
2023/05/17 03:37:50;;;;;;;10.35;3.97;;;15.90;99.90;;;;;;4163245;28;20053;-72
2023/05/17 03:39:51;;;;;;;11.55;2.80;;;15.80;99.90;;;;;;4162420;28;20107;-74
2023/05/17 03:41:53;;;;;;;12.05;3.92;;;15.80;99.90;;;;;;4162955;28;20483;-74
2023/05/17 03:43:54;;;;;;;10.15;2.42;;;15.80;99.90;;;;;;4162679;28;20033;-72
2023/05/17 03:45:55;;;;;;;9.68;3.30;;;15.80;99.90;;;;;;4163553;28;20539;-67
2023/05/17 03:47:56;;;;;;;12.57;3.03;;;15.80;99.90;;;;;;4162401;28;20025;-70
2023/05/17 03:49:57;;;;;;;10.43;3.63;;;15.80;99.90;;;;;;4162959;28;20530;-75
2023/05/17 03:51:58;;;;;;;12.85;3.25;;;15.70;99.90;;;;;;4162472;28;20056;-74
2023/05/17 03:54:00;;;;;;;10.57;3.28;;;15.60;99.90;;;;;;4163671;28;20084;-69
2023/05/17 03:56:01;;;;;;;9.18;2.80;;;15.60;99.90;;;;;;4161590;28;20037;-74
2023/05/17 03:58:02;;;;;;;9.82;2.70;;;15.60;99.90;;;;;;4162756;28;20075;-75
2023/05/17 04:00:09;;;;;;;11.52;2.90;;;15.70;99.90;;;;;;4161958;28;20045;-74
2023/05/17 04:02:10;;;;;;;9.20;2.30;;;15.90;99.90;;;;;;4163085;28;20037;-75
2023/05/17 04:04:11;;;;;;;8.00;2.20;;;16.00;99.90;;;;;;4161747;28;20025;-75
2023/05/17 04:06:13;;;;;;;8.38;3.25;;;16.10;99.90;;;;;;4159767;28;20045;-68
2023/05/17 04:08:14;;;;;;;8.88;2.83;;;16.20;99.90;;;;;;4152261;28;20057;-75
2023/05/17 04:10:16;;;;;;;11.90;3.25;;;16.10;99.90;;;;;;4161190;28;20788;-74
2023/05/17 04:12:17;;;;;;;9.90;2.88;;;16.10;99.90;;;;;;4161730;28;20672;-69
2023/05/17 04:14:18;;;;;;;5.68;2.30;;;16.10;99.90;;;;;;4161258;28;20092;-72
2023/05/17 04:16:20;;;;;;;8.10;1.90;;;16.10;99.90;;;;;;4162093;28;20501;-73
2023/05/17 04:18:21;;;;;;;8.32;2.05;;;16.00;99.90;;;;;;4160788;28;20107;-74
2023/05/17 04:20:22;;;;;;;8.50;2.42;;;16.00;99.90;;;;;;4161615;28;20505;-72
2023/05/17 04:22:23;;;;;;;7.50;1.98;;;15.90;99.90;;;;;;4143028;28;20038;-73
2023/05/17 04:24:25;;;;;;;7.20;1.60;;;15.90;99.90;;;;;;4162466;28;20107;-73
2023/05/17 04:26:26;;;;;;;5.15;1.40;;;15.90;99.90;;;;;;4160525;28;20091;-75
2023/05/17 04:28:28;;;;;;;4.78;1.77;;;15.80;99.90;;;;;;4162664;28;20049;-76
2023/05/17 04:30:29;;;;;;;7.07;1.48;;;15.70;99.90;;;;;;4161858;28;20037;-70
2023/05/17 04:32:32;;;;;;;3.63;1.33;;;15.70;99.90;;;;;;4161911;28;20033;-78
2023/05/17 04:34:34;;;;;;;5.35;1.33;;;15.60;99.90;;;;;;4161435;28;20038;-73
2023/05/17 04:36:35;;;;;;;4.20;1.85;;;15.60;99.90;;;;;;4162024;28;20091;-71
2023/05/17 04:38:36;;;;;;;5.80;1.20;;;15.60;99.90;;;;;;4161990;28;20079;-75
2023/05/17 04:40:38;;;;;;;7.15;1.10;;;15.60;99.90;;;;;;4161093;28;20528;-78
2023/05/17 04:42:39;;;;;;;4.80;1.10;;;15.60;99.90;;;;;;4161938;28;20041;-78
2023/05/17 04:44:40;;;;;;;4.40;1.67;;;15.60;99.90;;;;;;4160804;28;20049;-77
2023/05/17 04:46:42;;;;;;;2.42;0.68;;;15.60;99.90;;;;;;4162782;28;20025;-79
2023/05/17 04:48:43;;;;;;;3.28;1.20;;;15.50;99.90;;;;;;4160677;28;20100;-73
2023/05/17 04:50:45;;;;;;;4.88;0.70;;;15.50;99.90;;;;;;4161719;28;20553;-75
2023/05/17 04:52:47;;;;;;;3.90;0.98;;;15.50;99.90;;;;;;4161471;28;20534;-74
2023/05/17 04:54:49;;;;;;;5.80;0.85;;;15.50;99.90;;;;;;4161769;28;20029;-74
2023/05/17 04:56:50;;;;;;;4.50;0.60;;;15.50;99.90;;;;;;4160913;28;20046;-78
2023/05/17 04:58:51;;;;;;;3.35;1.10;;;15.50;99.90;;;;;;4162509;28;20080;-77
2023/05/17 05:00:52;;;;;;;3.55;0.65;;;15.40;99.90;;;;;;4160681;28;20367;-59
2023/05/17 05:02:53;;;;;;;6.82;1.13;;;15.40;99.90;;;;;;4162226;28;20087;-78
2023/05/17 05:04:54;;;;;;;3.08;0.63;;;15.30;99.90;;;;;;4161220;28;20071;-59
2023/05/17 05:06:55;;;;;;;7.68;1.88;;;15.20;99.90;;;;;;4144293;28;20050;-78
2023/05/17 05:08:56;;;;;;;3.22;1.50;;;15.10;99.90;;;;;;4161547;28;20029;-79
2023/05/17 05:10:58;;;;;;;3.90;0.93;;;15.10;99.90;;;;;;4161373;28;20037;-61
2023/05/17 05:12:59;;;;;;;1.65;0.65;;;15.00;99.90;;;;;;4162003;28;20072;-75
2023/05/17 05:15:00;;;;;;;4.18;0.80;;;15.00;99.90;;;;;;4160285;28;20091;-78
2023/05/17 05:17:01;;;;;;;1.90;0.95;;;14.90;99.90;;;;;;4161861;28;20083;-57
2023/05/17 05:19:02;;;;;;;3.25;0.70;;;14.90;99.90;;;;;;4161009;28;20044;-78
2023/05/17 05:21:03;;;;;;;5.18;1.02;;;14.80;99.90;;;;;;4143964;28;20049;-76
2023/05/17 05:23:04;;;;;;;6.03;1.33;;;14.70;99.90;;;;;;4161005;28;20858;-58
2023/05/17 05:25:06;;;;;;;4.68;1.00;;;14.70;99.90;;;;;;4162181;28;20033;-71
2023/05/17 05:27:07;;;;;;;3.53;0.90;;;14.60;99.90;;;;;;4160870;28;20381;-77
2023/05/17 05:29:09;;;;;;;6.78;0.85;;;14.50;99.90;;;;;;4161113;28;20072;-77
2023/05/17 05:31:10;;;;;;;4.38;0.88;;;14.50;99.90;;;;;;4160611;28;20037;-78
2023/05/17 05:33:11;;;;;;;4.95;1.58;;;14.40;99.90;;;;;;4160814;28;20536;-78
2023/05/17 05:35:12;;;;;;;3.15;1.13;;;14.40;99.90;;;;;;4159427;28;20382;-67
2023/05/17 05:37:13;;;;;;;2.83;1.23;;;14.40;99.90;;;;;;4161298;28;20038;-76
2023/05/17 05:39:15;;;;;;;4.30;1.42;;;14.40;99.90;;;;;;4161008;28;20022;-77
2023/05/17 05:41:16;;;;;;;5.45;1.20;;;14.40;99.90;;;;;;4160527;28;20485;-77
2023/05/17 05:43:17;;;;;;;5.60;1.50;;;14.40;99.90;;;;;;4160291;28;20136;-77
2023/05/17 05:45:18;;;;;;;7.35;1.45;;;14.40;99.90;;;;;;4160523;28;20030;-75
2023/05/17 05:47:19;;;;;;;3.55;0.90;;;14.50;99.90;;;;;;4161356;28;20018;-77
2023/05/17 05:49:20;;;;;;;8.02;1.10;;;14.50;99.90;;;;;;4160222;28;20025;-75
2023/05/17 05:51:22;;;;;;;7.82;1.63;;;14.50;99.90;;;;;;4160390;28;20095;-78
2023/05/17 05:53:23;;;;;;;4.32;1.13;;;14.60;99.90;;;;;;4160329;28;20095;-74
2023/05/17 05:55:24;;;;;;;4.25;0.80;;;14.60;99.90;;;;;;4160813;28;20037;-78
2023/05/17 05:57:25;;;;;;;4.70;0.90;;;14.60;99.90;;;;;;4159677;28;20092;-76
2023/05/17 05:59:26;;;;;;;4.35;1.20;;;14.60;99.90;;;;;;4161663;28;20021;-66
2023/05/17 06:01:28;;;;;;;3.55;1.35;;;14.60;99.90;;;;;;4159281;28;20091;-59
2023/05/17 06:03:29;;;;;;;3.65;0.80;;;14.60;99.90;;;;;;4160584;28;20045;-68
2023/05/17 06:05:30;;;;;;;4.55;0.90;;;14.60;99.90;;;;;;4160423;28;20421;-58
2023/05/17 06:07:31;;;;;;;4.43;1.17;;;14.70;99.90;;;;;;4158098;28;20072;-68
2023/05/17 06:09:33;;;;;;;3.95;1.20;;;14.70;99.90;;;;;;4154864;28;20443;-58
2023/05/17 06:11:34;;;;;;;3.60;1.42;;;14.80;99.90;;;;;;4164247;28;20488;-74
2023/05/17 06:13:35;;;;;;;2.70;1.13;;;14.70;99.90;;;;;;4158452;28;20497;-60
2023/05/17 06:15:36;;;;;;;6.10;1.80;;;14.70;99.90;;;;;;4167938;28;20030;-76
2023/05/17 06:17:37;;;;;;;4.82;0.98;;;14.60;99.90;;;;;;4162357;28;20037;-59
2023/05/17 06:19:38;;;;;;;7.72;1.27;;;14.60;99.90;;;;;;4165850;28;20034;-59
2023/05/17 06:21:39;;;;;;;3.55;1.30;;;14.50;99.90;;;;;;4171255;28;20037;-59
2023/05/17 06:23:40;;;;;;;5.05;1.40;;;14.50;99.90;;;;;;4162678;28;20041;-71
2023/05/17 06:25:42;;;;;;;4.38;1.50;;;14.50;99.90;;;;;;4156047;28;20042;-70
2023/05/17 06:27:43;;;;;;;3.58;1.50;;;14.50;99.90;;;;;;4153734;28;20558;-58
2023/05/17 06:29:44;;;;;;;5.35;1.40;;;14.50;99.90;;;;;;4163840;28;20087;-74
2023/05/17 06:31:45;;;;;;;5.05;1.08;;;14.40;99.90;;;;;;4165222;28;20030;-73
2023/05/17 06:33:46;;;;;;;5.30;1.20;;;14.50;99.90;;;;;;4165354;28;20107;-72
2023/05/17 06:35:48;;;;;;;5.57;1.38;;;14.40;99.90;;;;;;4159876;28;21176;-72
2023/05/17 06:37:49;;;;;;;5.22;1.15;;;14.50;99.90;;;;;;4164024;28;20037;-54
2023/05/17 06:39:51;;;;;;;3.53;1.08;;;14.50;99.90;;;;;;4163514;28;20726;-69
2023/05/17 06:41:52;;;;;;;4.43;1.80;;;14.60;99.90;;;;;;4160283;28;20049;-57
2023/05/17 06:43:53;;;;;;;9.15;2.53;;;14.60;99.90;;;;;;4164259;28;20022;-73
2023/05/17 06:45:54;;;;;;;3.75;1.42;;;14.60;99.90;;;;;;4162247;28;20037;-72
2023/05/17 06:47:55;;;;;;;7.68;3.17;;;14.70;99.90;;;;;;4164375;28;20087;-70
2023/05/17 06:49:56;;;;;;;7.78;3.45;;;14.70;99.90;;;;;;4161774;28;20038;-75
2023/05/17 06:52:02;;;;;;;6.47;2.10;;;14.70;99.90;;;;;;4164808;28;20151;-60
2023/05/17 06:54:03;;;;;;;10.60;3.75;;;14.80;99.90;;;;;;4162746;28;20805;-60
2023/05/17 06:56:04;;;;;;;6.70;2.63;;;14.80;99.90;;;;;;4164427;28;20423;-61
2023/05/17 06:58:05;;;;;;;7.75;1.90;;;14.90;99.90;;;;;;4163300;28;20057;-71
2023/05/17 07:00:09;;;;;;;4.88;1.88;;;14.90;99.90;;;;;;4164258;28;20030;-61
2023/05/17 07:02:10;;;;;;;6.32;1.88;;;14.80;99.90;;;;;;4163148;28;20037;-71
2023/05/17 07:04:12;;;;;;;4.07;1.20;;;14.80;99.90;;;;;;4163779;28;20396;-59
2023/05/17 07:06:13;;;;;;;7.47;1.52;;;14.80;99.90;;;;;;4162920;28;20021;-69
2023/05/17 07:08:14;;;;;;;5.68;1.17;;;14.80;99.90;;;;;;4162920;28;20045;-61
2023/05/17 07:10:15;;;;;;;3.08;1.35;;;14.80;99.90;;;;;;4163574;28;20041;-61
2023/05/17 07:12:16;;;;;;;3.22;1.00;;;14.80;99.90;;;;;;4164055;28;20033;-72
2023/05/17 07:14:18;;;;;;;6.38;2.03;;;14.80;99.90;;;;;;4163397;28;20034;-59
2023/05/17 07:16:19;;;;;;;5.07;1.80;;;14.80;99.90;;;;;;4163070;28;20471;-61
2023/05/17 07:18:20;;;;;;;7.40;1.52;;;14.90;99.90;;;;;;4170462;28;20045;-61
2023/05/17 07:20:21;;;;;;;4.65;1.70;;;14.90;99.90;;;;;;4179568;28;20484;-61
2023/05/17 07:22:22;;;;;;;3.15;1.10;;;15.00;99.90;;;;;;4180549;28;20052;-61
2023/05/17 07:24:23;;;;;;;20.17;7.47;;;15.00;99.90;;;;;;4178226;28;20037;-56
2023/05/17 07:26:25;;;;;;;7.35;2.03;;;15.10;99.90;;;;;;4180146;28;20029;-63
2023/05/17 07:28:26;;;;;;;8.60;1.60;;;15.20;99.90;;;;;;4175838;28;20033;-70
2023/05/17 07:30:27;;;;;;;10.75;2.70;;;15.30;99.90;;;;;;4162812;28;20489;-67
2023/05/17 07:32:28;;;;;;;40.55;15.05;;;15.40;99.90;;;;;;4162398;28;20033;-68
2023/05/17 07:34:30;;;;;;;39.17;13.48;;;15.50;99.90;;;;;;4155109;28;20091;-61
2023/05/17 07:36:31;;;;;;;2.80;1.63;;;15.50;99.90;;;;;;4162854;28;20029;-70
2023/05/17 07:38:34;;;;;;;5.05;1.40;;;15.50;99.90;;;;;;4162791;28;20025;-68
2023/05/17 07:40:35;;;;;;;28.35;11.02;;;15.50;99.90;;;;;;4162405;28;20508;-70
2023/05/17 07:42:36;;;;;;;8.05;3.42;;;15.60;99.90;;;;;;4162520;28;20517;-78
2023/05/17 07:44:37;;;;;;;9.30;2.72;;;15.60;99.90;;;;;;4162773;28;20038;-74
2023/05/17 07:46:39;;;;;;;3.80;1.73;;;15.70;99.90;;;;;;4162500;28;20108;-73
2023/05/17 07:48:40;;;;;;;2.80;1.10;;;15.80;99.90;;;;;;4163921;28;20033;-71
2023/05/17 07:50:42;;;;;;;9.00;1.85;;;15.80;99.90;;;;;;4162675;28;20396;-61
2023/05/17 07:52:43;;;;;;;1.48;1.00;;;15.70;99.90;;;;;;4162505;28;20057;-62
2023/05/17 07:54:44;;;;;;;7.10;1.33;;;15.70;99.90;;;;;;4162317;28;20072;-73
2023/05/17 07:56:46;;;;;;;7.65;1.45;;;15.70;99.90;;;;;;4163699;28;20037;-60
2023/05/17 07:58:47;;;;;;;3.53;1.13;;;15.70;99.90;;;;;;4161837;28;20435;-70
2023/05/17 08:00:48;;;;;;;3.58;1.75;;;15.80;99.90;;;;;;4162954;28;20473;-64
2023/05/17 08:02:49;;;;;;;4.20;0.88;;;15.90;99.90;;;;;;4160460;28;20099;-60
2023/05/17 08:04:51;;;;;;;3.80;2.15;;;15.80;99.90;;;;;;4162872;28;20021;-59
2023/05/17 08:06:52;;;;;;;1.77;0.98;;;15.70;99.90;;;;;;4161335;28;20049;-68
2023/05/17 08:08:53;;;;;;;3.10;1.10;;;15.60;99.90;;;;;;4161752;28;20026;-64
2023/05/17 08:10:54;;;;;;;29.15;10.43;;;15.50;99.90;;;;;;4163922;28;20063;-67
2023/05/17 08:12:55;;;;;;;5.93;2.35;;;15.30;99.90;;;;;;4164872;28;20107;-67
2023/05/17 08:14:56;;;;;;;10.25;3.00;;;15.20;99.90;;;;;;4162264;28;20034;-61
2023/05/17 08:16:57;;;;;;;6.35;1.30;;;15.10;99.90;;;;;;4160914;28;20025;-66
2023/05/17 08:18:58;;;;;;;12.05;4.25;;;15.00;99.90;;;;;;4162033;28;20037;-63
2023/05/17 08:20:59;;;;;;;4.35;1.48;;;15.00;99.90;;;;;;4161487;28;20034;-60
2023/05/17 08:23:01;;;;;;;8.20;1.80;;;15.10;99.90;;;;;;4162137;28;20083;-63
2023/05/17 08:25:03;;;;;;;5.22;2.60;;;15.00;99.90;;;;;;4161534;28;20092;-63
2023/05/17 08:27:04;;;;;;;9.07;2.63;;;15.00;99.90;;;;;;4162480;28;20033;-60
2023/05/17 08:29:05;;;;;;;5.13;1.45;;;14.90;99.90;;;;;;4165835;28;20503;-61
2023/05/17 08:31:06;;;;;;;10.88;2.90;;;14.80;99.90;;;;;;4179075;28;20183;-65
2023/05/17 08:33:10;;;;;;;2.97;1.65;;;14.70;99.90;;;;;;4178245;28;20424;-62
2023/05/17 08:35:12;;;;;;;3.92;1.33;;;14.60;99.90;;;;;;4164863;28;20057;-70
2023/05/17 08:37:13;;;;;;;2.47;1.02;;;14.60;99.90;;;;;;4160444;28;20097;-64
2023/05/17 08:39:15;;;;;;;5.80;2.00;;;14.50;99.90;;;;;;4162284;28;20045;-70
2023/05/17 08:41:16;;;;;;;2.00;1.13;;;14.50;99.90;;;;;;4161559;28;20428;-58
2023/05/17 08:43:18;;;;;;;5.70;1.48;;;14.50;99.90;;;;;;4161989;28;20144;-61
2023/05/17 08:45:20;;;;;;;3.60;1.30;;;14.60;99.90;;;;;;4161562;28;20558;-69
2023/05/17 08:47:25;;;;;;;3.90;1.25;;;14.70;99.90;;;;;;4161555;28;20026;-61
2023/05/17 08:49:27;;;;;;;1.75;1.00;;;14.70;99.90;;;;;;4162162;28;20435;-67
2023/05/17 08:51:30;;;;;;;5.57;0.93;;;14.60;99.90;;;;;;4160888;28;20045;-77
2023/05/17 08:53:31;;;;;;;1.75;1.13;;;14.60;99.90;;;;;;4161409;28;20045;-69
2023/05/17 08:55:32;;;;;;;6.78;1.30;;;14.60;99.90;;;;;;4160924;28;20477;-72
2023/05/17 08:57:37;;;;;;;4.78;1.42;;;14.60;99.90;;;;;;4160878;28;20076;-64
2023/05/17 08:59:38;;;;;;;7.30;2.83;;;14.80;99.90;;;;;;4161022;28;20079;-66
2023/05/17 09:01:41;;;;;;;4.85;1.30;;;14.90;99.90;;;;;;4162489;28;20087;-70
2023/05/17 09:03:47;;;;;;;4.07;2.53;;;14.90;99.90;;;;;;4159868;28;20148;-67
2023/05/17 09:05:52;;;;;;;15.23;6.43;;;15.00;99.90;;;;;;4168738;28;20032;-69
2023/05/17 09:07:54;;;;;;;8.48;4.68;;;15.00;99.90;;;;;;4160904;28;20037;-67
2023/05/17 09:09:57;;;;;;;7.47;3.60;;;14.90;99.90;;;;;;4162149;28;20484;-64
2023/05/17 09:11:58;;;;;;;12.20;5.32;;;15.00;99.90;;;;;;4161089;28;20075;-67
2023/05/17 09:14:01;;;;;;;7.43;1.80;;;15.10;99.90;;;;;;4175098;28;20377;-72
2023/05/17 09:16:11;;;;;;;18.65;7.53;;;15.10;99.90;;;;;;4160635;28;20099;-70
2023/05/17 09:18:13;;;;;;;17.25;7.07;;;15.10;99.90;;;;;;4161585;28;20025;-74
2023/05/17 09:20:22;;;;;;;15.52;6.50;;;15.10;99.90;;;;;;4160497;28;20091;-76
2023/05/17 09:22:24;;;;;;;6.10;2.90;;;15.10;99.90;;;;;;4160790;28;20053;-68
2023/05/17 09:24:29;;;;;;;8.80;3.53;;;15.10;99.90;;;;;;4143719;28;20104;-71
2023/05/17 09:26:44;;;;;;;6.82;1.50;;;15.00;99.90;;;;;;4161301;28;20030;-75
2023/05/17 09:28:47;;;;;;;2.63;0.90;;;15.00;99.90;;;;;;4160968;28;20493;-69
2023/05/17 09:30:48;;;;;;;1.58;1.00;;;14.90;99.90;;;;;;4176915;28;20099;-62
2023/05/17 09:32:49;;;;;;;4.57;1.92;;;14.90;99.90;;;;;;4177760;28;20079;-63
2023/05/17 09:34:51;;;;;;;2.58;1.00;;;14.90;99.90;;;;;;4176982;28;20316;-68
2023/05/17 09:36:53;;;;;;;9.45;1.00;;;14.80;99.90;;;;;;4177297;28;20423;-66
2023/05/17 09:39:05;;;;;;;2.10;1.00;;;14.70;99.90;;;;;;4176383;28;20142;-67
2023/05/17 09:41:06;;;;;;;3.08;1.00;;;14.70;99.90;;;;;;4177661;28;20037;-63
2023/05/17 09:43:08;;;;;;;2.65;0.90;;;14.50;99.90;;;;;;4177222;28;20140;-61
2023/05/17 09:45:09;;;;;;;8.40;2.15;;;14.50;99.90;;;;;;4177315;28;21181;-67
2023/05/17 09:47:19;;;;;;;2.28;1.08;;;14.50;99.90;;;;;;4158402;28;20037;-73
2023/05/17 09:49:25;;;;;;;3.20;1.25;;;14.40;99.90;;;;;;4156750;28;20087;-69
2023/05/17 09:51:43;;;;;;;3.53;1.42;;;14.40;99.90;;;;;;4157827;28;20099;-77
2023/05/17 09:53:44;;;;;;;5.38;1.50;;;14.30;99.90;;;;;;4143445;28;20034;-60
2023/05/17 09:55:47;;;;;;;5.63;1.75;;;14.40;99.90;;;;;;4159905;28;20391;-60
2023/05/17 09:57:48;;;;;;;1.90;1.48;;;14.40;99.90;;;;;;4161882;28;20461;-62
2023/05/17 09:59:50;;;;;;;3.70;1.40;;;14.50;99.90;;;;;;4142667;28;20092;-61
2023/05/17 10:01:53;;;;;;;3.85;1.45;;;14.60;99.90;;;;;;4161063;28;20075;-70
2023/05/17 10:03:57;;;;;;;7.90;3.58;;;14.60;99.90;;;;;;4159669;28;20037;-60
2023/05/17 10:06:02;;;;;;;3.72;1.63;;;14.60;99.90;;;;;;4161716;28;20052;-75
2023/05/17 10:08:04;;;;;;;3.20;1.20;;;14.70;99.90;;;;;;4160781;28;20025;-61
2023/05/17 10:10:07;;;;;;;8.43;1.17;;;14.70;99.90;;;;;;4161768;28;20489;-60
2023/05/17 10:12:13;;;;;;;1.80;0.80;;;14.70;99.90;;;;;;4160483;28;20472;-60
2023/05/17 10:14:27;;;;;;;4.50;1.13;;;14.60;99.90;;;;;;4162344;28;20033;-75
2023/05/17 10:16:29;;;;;;;2.40;1.10;;;14.60;99.90;;;;;;4161052;28;20033;-61
2023/05/17 10:18:31;;;;;;;2.13;0.88;;;14.50;99.90;;;;;;4160605;28;20022;-75
2023/05/17 10:20:33;;;;;;;1.58;0.73;;;14.50;99.90;;;;;;4160711;28;20025;-63
2023/05/17 10:22:35;;;;;;;3.47;0.90;;;14.40;99.90;;;;;;4161202;28;20034;-72
2023/05/17 10:24:37;;;;;;;1.23;0.65;;;14.40;99.90;;;;;;4161382;28;20037;-60
2023/05/17 10:26:39;;;;;;;3.65;0.63;;;14.50;99.90;;;;;;4160224;28;20484;-69
2023/05/17 10:28:41;;;;;;;2.85;1.23;;;14.50;99.90;;;;;;4159149;28;20416;-70
2023/05/17 10:30:43;;;;;;;8.15;1.45;;;14.50;99.90;;;;;;4160267;28;20041;-60
2023/05/17 10:32:44;;;;;;;1.80;0.98;;;14.60;99.90;;;;;;4160963;28;20077;-70
2023/05/17 10:34:48;;;;;;;3.58;1.40;;;14.60;99.90;;;;;;4159698;28;20042;-71